createdAt,value
2019-04-23T00:00:56.245Z,89.80
2019-04-23T00:03:23.876Z,89.70
2019-04-23T00:05:54.935Z,90.10
2019-04-23T00:08:25.824Z,90.80
2019-04-23T00:10:58.772Z,91.30
2019-04-23T00:13:30.322Z,91.50
2019-04-23T00:16:12.887Z,91.60
2019-04-23T00:18:46.674Z,91.90
2019-04-23T00:21:20.683Z,91.60
2019-04-23T00:23:53.432Z,91.50
2019-04-23T00:26:25.712Z,91.50
2019-04-23T00:29:01.049Z,91.60
2019-04-23T00:33:50.633Z,92.50
2019-04-23T00:36:29.309Z,92.30
2019-04-23T00:38:49.703Z,92.40
2019-04-23T00:41:25.273Z,91.60
2019-04-23T00:43:57.831Z,91.80
2019-04-23T00:46:22.126Z,92.00
2019-04-23T00:49:03.611Z,92.40
2019-04-23T00:51:22.763Z,92.40
2019-04-23T00:53:54.691Z,92.70
2019-04-23T00:56:38.699Z,93.00
2019-04-23T00:58:55.208Z,93.10
2019-04-23T01:04:02.856Z,93.20
2019-04-23T01:06:24.130Z,93.30
2019-04-23T01:08:57.442Z,93.20
2019-04-23T01:11:22.863Z,93.40
2019-04-23T01:14:03.965Z,93.50
2019-04-23T01:16:28.754Z,93.40
2019-04-23T01:19:24.507Z,93.50
2019-04-23T01:21:34.931Z,93.30
2019-04-23T01:24:15.865Z,93.10
2019-04-23T01:27:39.774Z,93.00
2019-04-23T01:30:00.060Z,92.90
2019-04-23T01:32:28.956Z,93.00
2019-04-23T01:35:06.883Z,93.10
2019-04-23T01:37:30.490Z,92.80
2019-04-23T01:39:57.570Z,92.60
2019-04-23T01:42:36.677Z,92.60
2019-04-23T01:47:34.870Z,93.00
2019-04-23T01:50:09.708Z,92.60
2019-04-23T01:52:43.043Z,92.50
2019-04-23T01:55:01.806Z,92.60
2019-04-23T02:00:08.819Z,92.90
2019-04-23T02:02:38.376Z,92.70
2019-04-23T02:05:09.742Z,92.60
2019-04-23T02:07:35.587Z,92.30
2019-04-23T02:10:16.389Z,92.40
2019-04-23T02:12:42.173Z,92.70
2019-04-23T02:15:11.180Z,92.90
2019-04-23T02:17:38.439Z,92.90
2019-04-23T02:22:52.677Z,93.10
2019-04-23T02:25:26.466Z,93.10
2019-04-23T02:27:52.171Z,93.30
2019-04-23T02:30:40.048Z,92.80
2019-04-23T02:32:59.666Z,92.70
2019-04-23T02:38:00.754Z,92.50
2019-04-23T02:40:44.238Z,92.50
2019-04-23T02:43:06.801Z,92.50
2019-04-23T02:45:36.046Z,92.30
2019-04-23T02:48:01.827Z,92.30
2019-04-23T02:50:34.574Z,92.10
2019-04-23T02:52:58.168Z,92.20
2019-04-23T02:55:38.482Z,92.10
2019-04-23T02:58:02.125Z,92.10
2019-04-23T03:00:55.574Z,92.10
2019-04-23T03:03:14.048Z,92.00
2019-04-23T03:05:32.536Z,92.20
2019-04-23T03:10:31.706Z,92.30
2019-04-23T03:13:09.233Z,92.30
2019-04-23T03:15:57.101Z,92.30
2019-04-23T03:21:01.831Z,92.20
2019-04-23T03:23:34.405Z,92.00
2019-04-23T03:26:08.511Z,92.00
2019-04-23T03:28:36.095Z,91.90
2019-04-23T03:38:41.911Z,91.10
2019-04-23T03:41:06.975Z,91.00
2019-04-23T03:43:33.703Z,90.80
2019-04-23T03:48:41.248Z,90.00
2019-04-23T03:50:58.699Z,89.50
2019-04-23T03:56:12.410Z,87.90
2019-04-23T04:01:05.097Z,84.50
2019-04-23T04:04:04.039Z,82.30
2019-04-23T04:06:16.766Z,80.40
2019-04-23T04:09:00.612Z,79.40
2019-04-23T04:13:40.706Z,75.00
2019-04-23T04:16:07.398Z,73.00
2019-04-23T04:23:42.833Z,67.70
2019-04-23T04:26:13.407Z,67.30
2019-04-23T04:31:37.413Z,62.00
2019-04-23T04:33:58.496Z,59.30
2019-04-23T04:38:54.386Z,59.20
2019-04-23T04:41:13.928Z,58.10
2019-04-23T04:43:50.748Z,56.00
2019-04-23T04:46:21.370Z,54.20
2019-04-23T04:48:49.171Z,52.90
2019-04-23T04:51:24.337Z,51.50
2019-04-23T04:56:27.582Z,48.50
2019-04-23T04:58:53.043Z,48.40
2019-04-23T05:03:32.741Z,45.70
2019-04-23T05:08:54.687Z,42.80
2019-04-23T05:13:49.785Z,41.20
2019-04-23T05:16:24.271Z,39.70
2019-04-23T05:18:58.053Z,37.10
2019-04-23T05:21:33.133Z,34.80
2019-04-23T10:46:29.589Z,23.00
2019-04-23T10:52:07.126Z,23.10
2019-04-23T11:02:31.586Z,22.70
2019-04-23T11:04:57.674Z,22.80
2019-04-23T11:07:26.262Z,23.90
2019-04-23T11:10:05.815Z,23.50
2019-04-23T11:17:45.605Z,22.80
2019-04-23T11:25:26.648Z,23.40
2019-04-23T11:30:29.398Z,23.30
2019-04-23T11:32:54.298Z,23.30
2019-04-23T11:35:22.789Z,23.00
2019-04-23T11:40:21.130Z,22.80
2019-04-23T11:42:58.107Z,23.10
2019-04-23T11:45:41.651Z,23.00
2019-04-23T11:50:29.584Z,23.00
2019-04-23T11:55:36.619Z,23.20
2019-04-23T11:58:07.000Z,22.80
2019-04-23T12:00:25.958Z,23.50
2019-04-23T12:02:57.056Z,23.40
2019-04-23T12:05:32.097Z,23.20
2019-04-23T12:08:08.709Z,22.80
2019-04-23T12:11:08.467Z,22.50
2019-04-23T12:13:30.129Z,22.40
2019-04-23T12:15:51.808Z,22.80
2019-04-23T12:18:29.960Z,22.30
2019-04-23T12:20:49.720Z,22.50
2019-04-23T12:25:51.575Z,22.70
2019-04-23T12:30:50.758Z,22.90
2019-04-23T12:33:39.098Z,22.50
2019-04-23T12:35:54.063Z,22.20
2019-04-23T12:38:25.483Z,22.00
2019-04-23T12:40:56.195Z,22.30
2019-04-23T12:43:23.243Z,22.20
2019-04-23T12:45:51.949Z,21.90
2019-04-23T12:48:41.230Z,21.70
2019-04-23T12:51:21.315Z,21.60
2019-04-23T12:53:38.271Z,22.30
2019-04-23T12:56:01.959Z,22.00
2019-04-23T13:00:57.996Z,22.10
2019-04-23T13:03:34.140Z,22.10
2019-04-23T13:05:59.320Z,21.70
2019-04-23T13:11:07.176Z,21.60
2019-04-23T13:13:44.407Z,22.00
2019-04-23T13:16:14.479Z,22.20
2019-04-23T13:18:39.522Z,22.10
2019-04-23T13:21:06.945Z,22.10
2019-04-23T13:23:34.580Z,22.30
2019-04-23T13:26:04.055Z,22.40
2019-04-23T13:31:12.982Z,22.50
2019-04-23T13:36:34.902Z,22.30
2019-04-23T13:43:53.013Z,22.70
2019-04-23T13:46:18.040Z,22.60
2019-04-23T13:48:47.149Z,22.20
2019-04-23T13:54:15.857Z,23.20
2019-04-23T13:56:36.770Z,23.00
2019-04-23T13:58:57.806Z,22.80
2019-04-23T14:01:30.752Z,22.60
2019-04-23T14:04:06.252Z,22.60
2019-04-23T14:06:36.503Z,22.60
2019-04-23T14:09:12.884Z,22.70
2019-04-23T14:11:30.917Z,23.20
2019-04-23T14:14:22.273Z,23.30
2019-04-23T14:16:48.364Z,22.50
2019-04-23T14:19:07.998Z,22.50
2019-04-23T14:21:38.731Z,22.80
2019-04-23T14:26:38.458Z,23.20
2019-04-23T14:29:13.173Z,22.80
2019-04-23T14:31:51.495Z,23.00
2019-04-23T14:36:55.495Z,22.80
2019-04-23T14:39:18.763Z,22.60
2019-04-23T14:41:56.663Z,22.90
2019-04-23T14:44:23.725Z,22.80
2019-04-23T14:47:09.109Z,22.70
2019-04-23T14:49:40.717Z,22.60
2019-04-23T14:52:04.727Z,22.80
2019-04-23T14:55:06.033Z,22.90
2019-04-23T14:57:09.915Z,23.00
2019-04-23T14:59:31.598Z,23.60
2019-04-23T15:02:05.526Z,23.30
2019-04-23T15:07:15.697Z,23.10
2019-04-23T15:14:47.955Z,23.50
2019-04-23T15:17:13.039Z,23.20
2019-04-23T15:19:49.661Z,23.30
2019-04-23T15:22:43.924Z,23.10
2019-04-23T15:24:52.433Z,23.30
2019-04-23T15:29:43.013Z,23.20
2019-04-23T15:32:29.198Z,23.40
2019-04-23T15:35:03.080Z,23.30
2019-04-23T15:37:41.554Z,23.60
2019-04-23T15:42:26.121Z,23.70
2019-04-23T15:45:00.940Z,23.80
2019-04-23T15:47:36.046Z,24.00
2019-04-23T15:55:12.514Z,23.90
2019-04-23T15:58:01.639Z,24.40
2019-04-23T15:59:58.847Z,24.00
2019-04-23T16:02:04.432Z,24.30
2019-04-23T16:04:33.766Z,24.50
2019-04-23T16:07:04.381Z,24.40
2019-04-23T16:10:08.989Z,24.30
2019-04-23T16:12:37.292Z,24.30
2019-04-23T16:17:37.302Z,24.40
2019-04-23T16:20:25.541Z,24.60
2019-04-23T16:22:38.287Z,24.80
2019-04-23T16:27:36.136Z,24.60
2019-04-23T16:33:06.931Z,24.70
2019-04-23T16:35:34.591Z,24.90
2019-04-23T16:38:10.355Z,24.90
2019-04-23T16:43:03.987Z,25.00
2019-04-23T16:45:31.607Z,25.20
2019-04-23T16:48:07.129Z,25.70
2019-04-23T16:53:11.235Z,25.70
2019-04-23T16:55:29.191Z,25.80
2019-04-23T16:58:14.461Z,26.00
2019-04-23T17:00:41.587Z,25.50
2019-04-23T17:03:11.277Z,25.80
2019-04-23T17:05:39.314Z,25.90
2019-04-23T17:08:30.944Z,26.20
2019-04-23T17:10:48.724Z,26.40
2019-04-23T17:13:24.093Z,26.60
2019-04-23T17:15:46.696Z,27.40
2019-04-23T17:18:11.511Z,27.10
2019-04-23T17:20:47.154Z,27.60
2019-04-23T17:23:29.428Z,27.80
2019-04-23T17:25:41.886Z,28.00
2019-04-23T17:30:51.762Z,28.10
2019-04-23T17:33:27.698Z,28.20
2019-04-23T17:36:05.389Z,28.40
2019-04-23T17:38:46.977Z,28.70
2019-04-23T17:41:13.673Z,28.90
2019-04-23T17:43:54.521Z,29.00
2019-04-23T17:46:14.725Z,29.30
2019-04-23T17:48:49.454Z,29.00
2019-04-23T17:51:14.477Z,29.00
2019-04-23T17:56:27.244Z,29.50
2019-04-23T17:58:54.723Z,29.30
2019-04-23T18:06:37.947Z,30.30
2019-04-23T18:09:00.877Z,30.60
2019-04-23T18:11:24.543Z,30.80
2019-04-23T18:13:57.178Z,31.00
2019-04-23T18:16:35.461Z,31.50
2019-04-23T18:19:00.713Z,31.90
2019-04-23T18:24:27.640Z,32.50
2019-04-23T18:27:02.885Z,32.80
2019-04-23T18:29:42.174Z,33.30
2019-04-23T18:32:18.298Z,33.30
2019-04-23T18:35:04.267Z,33.60
2019-04-23T18:37:16.947Z,33.90
2019-04-23T18:39:47.030Z,34.00
2019-04-23T18:42:22.477Z,34.40
2019-04-23T18:44:54.021Z,34.20
2019-04-23T18:47:29.326Z,33.80
2019-04-23T18:49:45.403Z,34.00
2019-04-23T18:54:47.991Z,34.00
2019-04-23T19:00:02.769Z,35.70
2019-04-23T19:02:42.711Z,34.70
2019-04-23T19:07:51.623Z,34.70
2019-04-23T19:13:00.179Z,34.50
2019-04-23T19:15:37.177Z,34.90
2019-04-23T19:18:12.417Z,35.10
2019-04-23T19:20:47.953Z,35.80
2019-04-23T19:25:30.425Z,35.30
2019-04-23T19:28:10.393Z,35.90
2019-04-23T19:30:49.646Z,37.00
2019-04-23T19:33:13.878Z,36.00
2019-04-23T19:35:58.951Z,37.40
2019-04-23T19:38:13.428Z,36.30
2019-04-23T19:43:11.707Z,38.10
2019-04-23T19:45:49.713Z,40.10
2019-04-23T19:48:21.914Z,40.20
2019-04-23T19:50:57.336Z,41.20
2019-04-23T19:53:33.761Z,42.00
2019-04-23T19:56:02.032Z,42.60
2019-04-23T19:58:25.665Z,43.30
2019-04-23T20:01:13.746Z,43.20
2019-04-23T20:05:53.559Z,43.10
2019-04-23T20:08:34.036Z,42.40
2019-04-23T20:11:07.855Z,42.70
2019-04-23T20:13:35.664Z,43.90
2019-04-23T20:16:05.402Z,44.80
2019-04-23T20:18:34.807Z,44.30
2019-04-23T20:20:59.452Z,45.10
2019-04-23T20:23:43.233Z,46.70
2019-04-23T20:27:01.611Z,47.10
2019-04-23T20:29:11.997Z,47.00
2019-04-23T20:32:29.119Z,48.30
2019-04-23T20:39:06.169Z,49.50
2019-04-23T20:42:02.272Z,49.50
2019-04-23T20:47:04.836Z,49.80
2019-04-23T20:49:31.755Z,50.40
2019-04-23T20:52:00.165Z,49.00
2019-04-23T20:54:37.675Z,50.30
2019-04-23T20:57:00.439Z,51.20
2019-04-23T20:59:33.647Z,52.10
2019-04-23T21:02:22.343Z,52.10
2019-04-23T21:04:51.117Z,52.50
2019-04-23T21:07:17.607Z,50.70
2019-04-23T21:09:51.522Z,51.00
2019-04-23T21:12:21.002Z,51.80
2019-04-23T21:15:03.283Z,52.40
2019-04-23T21:17:16.946Z,53.00
2019-04-23T21:19:50.765Z,53.80
2019-04-23T21:24:45.888Z,54.30
2019-04-23T21:27:32.580Z,52.70
2019-04-23T21:32:29.442Z,53.90
2019-04-23T21:37:37.678Z,54.30
2019-04-23T21:40:19.406Z,54.70
2019-04-23T21:42:54.550Z,55.00
2019-04-23T21:45:15.941Z,55.30
2019-04-23T21:47:54.880Z,56.10
2019-04-23T21:50:20.146Z,57.90
2019-04-23T21:52:48.755Z,57.90
2019-04-23T21:55:10.457Z,58.10
2019-04-23T21:57:57.781Z,59.70
2019-04-23T22:00:39.266Z,59.90
2019-04-23T22:08:00.801Z,58.90
2019-04-23T22:10:18.275Z,58.90
2019-04-23T22:13:02.115Z,59.90
2019-04-23T22:15:22.273Z,59.50
2019-04-23T22:23:08.471Z,60.30
2019-04-23T22:25:23.685Z,60.40
2019-04-23T22:27:54.897Z,61.50
2019-04-23T22:33:15.879Z,63.90
2019-04-23T22:35:23.734Z,63.40
2019-04-23T22:38:09.116Z,62.50
2019-04-23T22:40:27.808Z,64.70
2019-04-23T22:43:16.083Z,62.80
2019-04-23T22:45:26.847Z,65.30
2019-04-23T22:48:04.737Z,63.90
2019-04-23T22:50:31.431Z,65.40
2019-04-23T22:53:00.375Z,64.50
2019-04-23T22:55:38.918Z,64.60
2019-04-23T22:58:04.403Z,64.80
2019-04-23T23:00:24.946Z,59.40
2019-04-23T23:05:55.951Z,59.60
2019-04-23T23:08:13.466Z,61.00
2019-04-23T23:10:46.437Z,58.10
2019-04-23T23:15:49.310Z,54.30
2019-04-23T23:20:55.413Z,59.30
2019-04-23T23:23:40.799Z,57.30
2019-04-23T23:25:49.998Z,58.10
2019-04-23T23:28:20.223Z,54.60
2019-04-23T23:30:58.277Z,54.80
2019-04-23T23:33:17.306Z,58.60
2019-04-23T23:35:54.168Z,57.40
2019-04-23T23:38:24.154Z,59.00
2019-04-23T23:40:57.401Z,59.90
2019-04-23T23:43:25.940Z,55.60
2019-04-23T23:46:10.900Z,56.80
2019-04-23T23:48:18.676Z,58.50
2019-04-23T23:51:00.458Z,59.10
2019-04-23T23:53:30.722Z,61.80
2019-04-23T23:56:05.459Z,61.00
2019-04-23T23:58:36.585Z,58.40
